Metar z połowy godziny Komunikat METAR ze strony awiacja.imgw.pl Metar G30 EPOK METAR EPOK 240400Z 26009KT 9999 BKN251 07/04 Q1011 RMK 074 081 6/6 =